sensor_id;sensor_type;location;lat;lon;timestamp;pressure;altitude;pressure_sealevel;temperature;humidity
69306;BME280;56427;51.580;4.656;2023-08-31T00:01:11;100900.50;;;11.48;89.91
69306;BME280;56427;51.580;4.656;2023-08-31T00:03:36;100907.44;;;11.48;89.80
69306;BME280;56427;51.580;4.656;2023-08-31T00:06:02;100905.88;;;11.45;89.94
69306;BME280;56427;51.580;4.656;2023-08-31T00:08:33;100906.69;;;11.46;89.66
69306;BME280;56427;51.580;4.656;2023-08-31T00:11:00;100912.88;;;11.43;89.71
69306;BME280;56427;51.580;4.656;2023-08-31T00:13:26;100912.81;;;11.45;89.76
69306;BME280;56427;51.580;4.656;2023-08-31T00:15:54;100904.00;;;11.47;89.61
69306;BME280;56427;51.580;4.656;2023-08-31T00:18:20;100908.47;;;11.45;89.64
69306;BME280;56427;51.580;4.656;2023-08-31T00:20:46;100906.69;;;11.46;89.32
69306;BME280;56427;51.580;4.656;2023-08-31T00:23:11;100901.81;;;11.40;89.42
69306;BME280;56427;51.580;4.656;2023-08-31T00:25:37;100909.59;;;11.40;89.53
69306;BME280;56427;51.580;4.656;2023-08-31T00:28:03;100916.38;;;11.42;89.44
69306;BME280;56427;51.580;4.656;2023-08-31T00:30:31;100907.00;;;11.40;89.49
69306;BME280;56427;51.580;4.656;2023-08-31T00:32:58;100904.09;;;11.46;89.62
69306;BME280;56427;51.580;4.656;2023-08-31T00:35:25;100897.69;;;11.35;89.47
69306;BME280;56427;51.580;4.656;2023-08-31T00:37:52;100903.78;;;11.34;89.62
69306;BME280;56427;51.580;4.656;2023-08-31T00:40:26;100902.78;;;11.37;89.68
69306;BME280;56427;51.580;4.656;2023-08-31T00:42:57;100902.22;;;11.32;89.53
69306;BME280;56427;51.580;4.656;2023-08-31T00:45:23;100895.38;;;11.29;89.81
69306;BME280;56427;51.580;4.656;2023-08-31T00:47:49;100903.03;;;11.32;89.94
69306;BME280;56427;51.580;4.656;2023-08-31T00:50:15;100902.97;;;11.34;89.86
69306;BME280;56427;51.580;4.656;2023-08-31T00:52:44;100901.19;;;11.34;89.71
69306;BME280;56427;51.580;4.656;2023-08-31T00:55:10;100909.06;;;11.33;89.93
69306;BME280;56427;51.580;4.656;2023-08-31T00:57:36;100905.38;;;11.37;89.88
69306;BME280;56427;51.580;4.656;2023-08-31T01:00:03;100907.16;;;11.37;89.71
69306;BME280;56427;51.580;4.656;2023-08-31T01:02:55;100903.88;;;11.33;89.88
69306;BME280;56427;51.580;4.656;2023-08-31T01:14:38;100893.94;;;11.41;89.87
69306;BME280;56427;51.580;4.656;2023-08-31T01:17:08;100903.50;;;11.41;89.89
69306;BME280;56427;51.580;4.656;2023-08-31T01:19:59;100895.78;;;11.39;89.90
69306;BME280;56427;51.580;4.656;2023-08-31T01:22:47;100889.81;;;11.37;89.70
69306;BME280;56427;51.580;4.656;2023-08-31T01:25:13;100898.59;;;11.34;89.65
69306;BME280;56427;51.580;4.656;2023-08-31T01:27:40;100899.13;;;11.41;89.88
69306;BME280;56427;51.580;4.656;2023-08-31T01:30:07;100901.13;;;11.36;89.43
69306;BME280;56427;51.580;4.656;2023-08-31T01:32:34;100901.13;;;11.36;89.76
69306;BME280;56427;51.580;4.656;2023-08-31T01:35:00;100906.22;;;11.38;89.86
69306;BME280;56427;51.580;4.656;2023-08-31T01:37:54;100902.66;;;11.40;89.63
69306;BME280;56427;51.580;4.656;2023-08-31T01:42:58;100912.88;;;11.43;89.51
69306;BME280;56427;51.580;4.656;2023-08-31T01:45:25;100912.34;;;11.37;89.65
69306;BME280;56427;51.580;4.656;2023-08-31T01:47:51;100906.22;;;11.38;89.99
69306;BME280;56427;51.580;4.656;2023-08-31T01:50:16;100909.75;;;11.37;90.03
69306;BME280;56427;51.580;4.656;2023-08-31T01:52:42;100909.53;;;11.41;89.80
69306;BME280;56427;51.580;4.656;2023-08-31T01:55:07;100913.88;;;11.41;89.50
69306;BME280;56427;51.580;4.656;2023-08-31T01:57:33;100916.88;;;11.33;89.72
69306;BME280;56427;51.580;4.656;2023-08-31T01:59:59;100912.44;;;11.35;90.06
69306;BME280;56427;51.580;4.656;2023-08-31T02:02:25;100899.66;;;11.30;89.84
69306;BME280;56427;51.580;4.656;2023-08-31T02:04:51;100910.97;;;11.29;89.78
69306;BME280;56427;51.580;4.656;2023-08-31T02:07:17;100912.50;;;11.16;89.69
69306;BME280;56427;51.580;4.656;2023-08-31T02:09:42;100916.38;;;11.25;89.60
69306;BME280;56427;51.580;4.656;2023-08-31T02:12:08;100910.53;;;11.21;89.75
69306;BME280;56427;51.580;4.656;2023-08-31T02:14:35;100909.06;;;11.16;89.83
69306;BME280;56427;51.580;4.656;2023-08-31T02:17:00;100908.16;;;11.17;89.96
69306;BME280;56427;51.580;4.656;2023-08-31T02:19:25;100909.59;;;11.05;89.83
69306;BME280;56427;51.580;4.656;2023-08-31T02:21:51;100912.03;;;11.08;90.04
69306;BME280;56427;51.580;4.656;2023-08-31T02:24:16;100915.03;;;11.00;90.11
69306;BME280;56427;51.580;4.656;2023-08-31T02:26:41;100913.28;;;11.01;90.30
69306;BME280;56427;51.580;4.656;2023-08-31T02:29:07;100920.22;;;11.00;90.35
69306;BME280;56427;51.580;4.656;2023-08-31T02:31:32;100908.13;;;10.99;90.71
69306;BME280;56427;51.580;4.656;2023-08-31T02:33:58;100910.66;;;11.01;90.75
69306;BME280;56427;51.580;4.656;2023-08-31T02:36:23;100912.34;;;11.02;90.56
69306;BME280;56427;51.580;4.656;2023-08-31T02:38:48;100910.41;;;11.05;90.68
69306;BME280;56427;51.580;4.656;2023-08-31T02:41:15;100910.50;;;11.04;90.52
69306;BME280;56427;51.580;4.656;2023-08-31T02:43:41;100913.03;;;11.05;90.72
69306;BME280;56427;51.580;4.656;2023-08-31T02:46:07;100916.41;;;11.07;90.47
69306;BME280;56427;51.580;4.656;2023-08-31T02:48:33;100909.53;;;11.06;90.64
69306;BME280;56427;51.580;4.656;2023-08-31T02:50:59;100919.84;;;11.08;90.84
69306;BME280;56427;51.580;4.656;2023-08-31T02:53:30;100911.75;;;11.14;90.78
69306;BME280;56427;51.580;4.656;2023-08-31T02:55:56;100916.09;;;11.14;90.88
69306;BME280;56427;51.580;4.656;2023-08-31T02:58:22;100920.47;;;11.13;91.01
69306;BME280;56427;51.580;4.656;2023-08-31T03:00:48;100909.91;;;11.16;90.94
69306;BME280;56427;51.580;4.656;2023-08-31T03:03:17;100918.16;;;11.24;91.04
69306;BME280;56427;51.580;4.656;2023-08-31T03:05:43;100922.59;;;11.22;90.99
69306;BME280;56427;51.580;4.656;2023-08-31T03:08:09;100922.59;;;11.22;90.94
69306;BME280;56427;51.580;4.656;2023-08-31T03:10:36;100920.00;;;11.22;90.87
69306;BME280;56427;51.580;4.656;2023-08-31T03:13:02;100913.03;;;11.23;91.02
69306;BME280;56427;51.580;4.656;2023-08-31T03:15:29;100912.94;;;11.24;91.28
69306;BME280;56427;51.580;4.656;2023-08-31T03:17:54;100920.69;;;11.26;91.11
69306;BME280;56427;51.580;4.656;2023-08-31T03:20:20;100915.41;;;11.27;91.24
69306;BME280;56427;51.580;4.656;2023-08-31T03:22:45;100910.22;;;11.27;91.27
69306;BME280;56427;51.580;4.656;2023-08-31T03:25:11;100915.50;;;11.26;91.11
69306;BME280;56427;51.580;4.656;2023-08-31T03:27:36;100917.84;;;11.30;91.07
69306;BME280;56427;51.580;4.656;2023-08-31T03:30:02;100916.25;;;11.28;91.08
69306;BME280;56427;51.580;4.656;2023-08-31T03:32:31;100920.69;;;11.26;90.98
69306;BME280;56427;51.580;4.656;2023-08-31T03:34:56;100917.09;;;11.28;90.91
69306;BME280;56427;51.580;4.656;2023-08-31T03:37:21;100923.81;;;11.32;90.99
69306;BME280;56427;51.580;4.656;2023-08-31T03:39:48;100923.75;;;11.34;90.90
69306;BME280;56427;51.580;4.656;2023-08-31T03:42:13;100911.50;;;11.36;91.03
69306;BME280;56427;51.580;4.656;2023-08-31T03:44:39;100930.78;;;11.32;90.96
69306;BME280;56427;51.580;4.656;2023-08-31T03:47:04;100930.59;;;11.35;91.11
69306;BME280;56427;51.580;4.656;2023-08-31T03:49:30;100929.47;;;11.41;90.89
69306;BME280;56427;51.580;4.656;2023-08-31T03:51:57;100918.16;;;11.42;90.69
69306;BME280;56427;51.580;4.656;2023-08-31T03:54:23;100927.69;;;11.41;90.81
69306;BME280;56427;51.580;4.656;2023-08-31T03:56:48;100925.94;;;11.42;90.49
69306;BME280;56427;51.580;4.656;2023-08-31T03:59:14;100927.94;;;11.37;90.73
69306;BME280;56427;51.580;4.656;2023-08-31T04:01:39;100921.91;;;11.36;90.43
69306;BME280;56427;51.580;4.656;2023-08-31T04:04:05;100921.06;;;11.35;90.60
69306;BME280;56427;51.580;4.656;2023-08-31T04:06:30;100924.66;;;11.33;90.55
69306;BME280;56427;51.580;4.656;2023-08-31T04:08:56;100931.63;;;11.32;90.72
69306;BME280;56427;51.580;4.656;2023-08-31T04:11:22;100931.66;;;11.31;90.63
69306;BME280;56427;51.580;4.656;2023-08-31T04:13:48;100933.44;;;11.30;90.67
69306;BME280;56427;51.580;4.656;2023-08-31T04:16:13;100932.75;;;11.27;90.46
69306;BME280;56427;51.580;4.656;2023-08-31T04:18:39;100937.88;;;11.28;90.68
69306;BME280;56427;51.580;4.656;2023-08-31T04:21:05;100936.31;;;11.24;90.52
69306;BME280;56427;51.580;4.656;2023-08-31T04:23:30;100943.22;;;11.25;90.67
69306;BME280;56427;51.580;4.656;2023-08-31T04:25:56;100935.28;;;11.28;90.59
69306;BME280;56427;51.580;4.656;2023-08-31T04:28:23;100942.13;;;11.29;90.53
69306;BME280;56427;51.580;4.656;2023-08-31T04:30:49;100941.47;;;11.26;90.23
69306;BME280;56427;51.580;4.656;2023-08-31T04:33:15;100940.69;;;11.24;90.31
69306;BME280;56427;51.580;4.656;2023-08-31T04:35:41;100941.47;;;11.26;90.31
69306;BME280;56427;51.580;4.656;2023-08-31T04:38:06;100948.34;;;11.27;90.42
69306;BME280;56427;51.580;4.656;2023-08-31T04:40:32;100951.00;;;11.25;90.19
69306;BME280;56427;51.580;4.656;2023-08-31T04:42:57;100949.31;;;11.24;90.38
69306;BME280;56427;51.580;4.656;2023-08-31T04:45:23;100954.81;;;11.18;90.16
69306;BME280;56427;51.580;4.656;2023-08-31T04:47:48;100953.91;;;11.19;90.35
69306;BME280;56427;51.580;4.656;2023-08-31T04:50:16;100959.16;;;11.18;90.41
69306;BME280;56427;51.580;4.656;2023-08-31T04:52:42;100956.81;;;11.13;90.46
69306;BME280;56427;51.580;4.656;2023-08-31T04:55:08;100960.06;;;11.17;90.74
69306;BME280;56427;51.580;4.656;2023-08-31T04:57:34;100954.97;;;11.15;90.47
69306;BME280;56427;51.580;4.656;2023-08-31T05:00:00;100965.19;;;11.18;90.55
69306;BME280;56427;51.580;4.656;2023-08-31T05:02:25;100965.88;;;11.22;90.76
69306;BME280;56427;51.580;4.656;2023-08-31T05:04:52;100968.41;;;11.23;90.32
69306;BME280;56427;51.580;4.656;2023-08-31T05:07:18;100965.72;;;11.25;90.41
69306;BME280;56427;51.580;4.656;2023-08-31T05:09:43;100974.38;;;11.25;90.21
69306;BME280;56427;51.580;4.656;2023-08-31T05:12:09;100976.81;;;11.28;90.37
69306;BME280;56427;51.580;4.656;2023-08-31T05:14:34;100983.47;;;11.34;90.27
69306;BME280;56427;51.580;4.656;2023-08-31T05:17:03;100984.16;;;11.38;90.11
69306;BME280;56427;51.580;4.656;2023-08-31T05:19:30;100984.75;;;11.43;90.12
69306;BME280;56427;51.580;4.656;2023-08-31T05:21:56;100987.06;;;11.49;89.86
69306;BME280;56427;51.580;4.656;2023-08-31T05:24:21;100987.16;;;11.65;89.59
69306;BME280;56427;51.580;4.656;2023-08-31T05:26:47;100979.50;;;11.96;88.74
69306;BME280;56427;51.580;4.656;2023-08-31T05:29:12;100987.47;;;12.26;87.53
69306;BME280;56427;51.580;4.656;2023-08-31T05:31:38;100987.56;;;12.40;86.16
69306;BME280;56427;51.580;4.656;2023-08-31T05:34:03;100995.16;;;12.45;86.49
69306;BME280;56427;51.580;4.656;2023-08-31T05:36:28;100998.25;;;13.15;84.75
69306;BME280;56427;51.580;4.656;2023-08-31T05:38:54;100993.75;;;13.48;83.46
69306;BME280;56427;51.580;4.656;2023-08-31T05:41:19;101000.13;;;13.73;81.44
69306;BME280;56427;51.580;4.656;2023-08-31T05:43:46;101000.28;;;14.43;79.48
69306;BME280;56427;51.580;4.656;2023-08-31T05:46:11;100999.22;;;14.45;78.21
69306;BME280;56427;51.580;4.656;2023-08-31T05:48:37;101008.75;;;15.02;76.78
69306;BME280;56427;51.580;4.656;2023-08-31T05:51:02;101013.28;;;14.86;76.85
69306;BME280;56427;51.580;4.656;2023-08-31T05:53:29;101011.97;;;14.93;77.21
69306;BME280;56427;51.580;4.656;2023-08-31T05:55:56;101007.41;;;15.23;75.74
69306;BME280;56427;51.580;4.656;2023-08-31T05:58:29;101001.44;;;15.61;73.79
69306;BME280;56427;51.580;4.656;2023-08-31T06:00:55;101007.69;;;15.58;74.66
69306;BME280;56427;51.580;4.656;2023-08-31T06:03:20;101016.34;;;16.37;72.78
69306;BME280;56427;51.580;4.656;2023-08-31T06:05:46;101014.47;;;16.01;73.63
69306;BME280;56427;51.580;4.656;2023-08-31T06:08:12;101019.09;;;16.85;71.95
69306;BME280;56427;51.580;4.656;2023-08-31T06:10:38;101023.47;;;17.56;68.80
69306;BME280;56427;51.580;4.656;2023-08-31T06:13:04;101024.06;;;17.24;68.43
69306;BME280;56427;51.580;4.656;2023-08-31T06:15:29;101025.06;;;17.70;68.03
69306;BME280;56427;51.580;4.656;2023-08-31T06:17:55;101031.41;;;16.08;72.21
69306;BME280;56427;51.580;4.656;2023-08-31T06:20:20;101029.41;;;16.50;72.40
69306;BME280;56427;51.580;4.656;2023-08-31T06:22:46;101042.38;;;16.77;71.39
69306;BME280;56427;51.580;4.656;2023-08-31T06:25:11;101034.19;;;16.68;71.98
69306;BME280;56427;51.580;4.656;2023-08-31T06:27:36;101040.59;;;17.38;69.86
69306;BME280;56427;51.580;4.656;2023-08-31T06:30:02;101039.94;;;16.86;71.43
69306;BME280;56427;51.580;4.656;2023-08-31T06:32:28;101044.63;;;16.19;73.83
69306;BME280;56427;51.580;4.656;2023-08-31T06:34:54;101047.94;;;16.85;71.65
69306;BME280;56427;51.580;4.656;2023-08-31T06:37:19;101042.50;;;17.47;70.40
69306;BME280;56427;51.580;4.656;2023-08-31T06:39:45;101047.88;;;17.21;70.06
69306;BME280;56427;51.580;4.656;2023-08-31T06:42:10;101047.22;;;17.66;69.89
69306;BME280;56427;51.580;4.656;2023-08-31T06:44:36;101049.22;;;18.55;67.24
69306;BME280;56427;51.580;4.656;2023-08-31T06:47:01;101048.31;;;18.10;68.12
69306;BME280;56427;51.580;4.656;2023-08-31T06:49:28;101047.75;;;18.17;67.91
69306;BME280;56427;51.580;4.656;2023-08-31T06:51:55;101050.47;;;18.16;67.81
69306;BME280;56427;51.580;4.656;2023-08-31T06:54:20;101045.13;;;18.40;67.87
69306;BME280;56427;51.580;4.656;2023-08-31T06:56:46;101048.31;;;18.10;67.88
69306;BME280;56427;51.580;4.656;2023-08-31T06:59:11;101052.78;;;18.31;68.19
69306;BME280;56427;51.580;4.656;2023-08-31T07:01:38;101056.88;;;18.69;67.95
69306;BME280;56427;51.580;4.656;2023-08-31T07:04:03;101061.16;;;18.70;66.11
69306;BME280;56427;51.580;4.656;2023-08-31T07:06:29;101059.09;;;18.29;67.77
69306;BME280;56427;51.580;4.656;2023-08-31T07:08:55;101063.72;;;19.15;65.97
69306;BME280;56427;51.580;4.656;2023-08-31T07:11:20;101071.91;;;18.78;66.63
69306;BME280;56427;51.580;4.656;2023-08-31T07:13:46;101071.69;;;18.81;66.40
69306;BME280;56427;51.580;4.656;2023-08-31T07:16:11;101067.31;;;19.14;65.51
69306;BME280;56427;51.580;4.656;2023-08-31T07:18:36;101071.38;;;19.50;65.99
69306;BME280;56427;51.580;4.656;2023-08-31T07:21:02;101075.59;;;19.41;64.79
69306;BME280;56427;51.580;4.656;2023-08-31T07:23:29;101083.16;;;18.69;66.49
69306;BME280;56427;51.580;4.656;2023-08-31T07:25:58;101076.31;;;19.00;67.03
69306;BME280;56427;51.580;4.656;2023-08-31T07:28:25;101074.88;;;19.39;65.59
69306;BME280;56427;51.580;4.656;2023-08-31T07:31:00;101080.28;;;19.38;66.42
69306;BME280;56427;51.580;4.656;2023-08-31T07:33:26;101079.50;;;19.04;66.52
69306;BME280;56427;51.580;4.656;2023-08-31T07:35:51;101082.91;;;20.54;63.12
69306;BME280;56427;51.580;4.656;2023-08-31T07:38:17;101080.34;;;19.48;65.23
69306;BME280;56427;51.580;4.656;2023-08-31T07:40:42;101082.25;;;19.13;66.05
69306;BME280;56427;51.580;4.656;2023-08-31T07:43:07;101080.94;;;20.25;63.42
69306;BME280;56427;51.580;4.656;2023-08-31T07:45:33;101079.28;;;19.50;65.91
69306;BME280;56427;51.580;4.656;2023-08-31T07:47:58;101079.84;;;19.10;65.80
69306;BME280;56427;51.580;4.656;2023-08-31T07:50:24;101082.00;;;19.60;64.21
69306;BME280;56427;51.580;4.656;2023-08-31T07:52:49;101082.00;;;20.64;61.41
69306;BME280;56427;51.580;4.656;2023-08-31T07:55:14;101081.13;;;20.94;61.48
69306;BME280;56427;51.580;4.656;2023-08-31T07:57:40;101089.75;;;20.14;62.75
69306;BME280;56427;51.580;4.656;2023-08-31T08:00:06;101083.13;;;20.71;62.04
69306;BME280;56427;51.580;4.656;2023-08-31T08:02:31;101092.25;;;20.16;62.42
69306;BME280;56427;51.580;4.656;2023-08-31T08:04:56;101091.38;;;20.36;62.11
69306;BME280;56427;51.580;4.656;2023-08-31T08:07:22;101087.53;;;20.40;62.24
69306;BME280;56427;51.580;4.656;2023-08-31T08:09:47;101093.72;;;20.51;61.80
69306;BME280;56427;51.580;4.656;2023-08-31T08:12:13;101093.66;;;20.20;63.25
69306;BME280;56427;51.580;4.656;2023-08-31T08:14:39;101089.47;;;20.99;61.26
69306;BME280;56427;51.580;4.656;2023-08-31T08:17:04;101098.53;;;21.26;60.08
69306;BME280;56427;51.580;4.656;2023-08-31T08:19:29;101100.06;;;20.79;60.58
69306;BME280;56427;51.580;4.656;2023-08-31T08:21:55;101108.59;;;21.32;61.02
69306;BME280;56427;51.580;4.656;2023-08-31T08:24:20;101103.31;;;21.71;58.95
69306;BME280;56427;51.580;4.656;2023-08-31T08:26:46;101110.38;;;21.41;60.07
69306;BME280;56427;51.580;4.656;2023-08-31T08:29:12;101112.22;;;21.60;60.01
69306;BME280;56427;51.580;4.656;2023-08-31T08:31:37;101115.28;;;21.94;57.75
69306;BME280;56427;51.580;4.656;2023-08-31T08:34:02;101117.13;;;21.15;59.02
69306;BME280;56427;51.580;4.656;2023-08-31T08:36:29;101115.84;;;21.09;60.57
69306;BME280;56427;51.580;4.656;2023-08-31T08:38:54;101108.59;;;22.19;57.29
69306;BME280;56427;51.580;4.656;2023-08-31T08:41:23;101114.84;;;21.50;58.64
69306;BME280;56427;51.580;4.656;2023-08-31T08:43:50;101118.59;;;21.96;57.70
69306;BME280;56427;51.580;4.656;2023-08-31T08:46:16;101133.88;;;21.44;57.92
69306;BME280;56427;51.580;4.656;2023-08-31T08:48:41;101122.66;;;21.02;60.65
69306;BME280;56427;51.580;4.656;2023-08-31T08:51:10;101130.69;;;21.50;58.70
69306;BME280;56427;51.580;4.656;2023-08-31T08:53:37;101135.41;;;21.37;58.71
69306;BME280;56427;51.580;4.656;2023-08-31T08:56:04;101128.97;;;20.50;60.75
69306;BME280;56427;51.580;4.656;2023-08-31T08:58:29;101124.03;;;21.66;58.05
69306;BME280;56427;51.580;4.656;2023-08-31T09:00:55;101133.06;;;21.44;57.38
69306;BME280;56427;51.580;4.656;2023-08-31T09:03:26;101124.75;;;21.18;58.29
69306;BME280;56427;51.580;4.656;2023-08-31T09:05:51;101123.63;;;21.01;59.07
69306;BME280;56427;51.580;4.656;2023-08-31T09:08:17;101127.88;;;20.92;58.40
69306;BME280;56427;51.580;4.656;2023-08-31T09:10:50;101141.13;;;21.12;58.41
69306;BME280;56427;51.580;4.656;2023-08-31T09:13:15;101142.25;;;21.78;55.95
69306;BME280;56427;51.580;4.656;2023-08-31T09:15:45;101143.63;;;21.73;55.73
69306;BME280;56427;51.580;4.656;2023-08-31T09:20:49;101155.03;;;21.64;58.38
69306;BME280;56427;51.580;4.656;2023-08-31T09:23:16;101139.53;;;21.30;56.77
69306;BME280;56427;51.580;4.656;2023-08-31T09:25:50;101137.06;;;20.98;55.62
69306;BME280;56427;51.580;4.656;2023-08-31T09:28:26;101143.16;;;20.98;58.44
69306;BME280;56427;51.580;4.656;2023-08-31T09:30:53;101142.56;;;20.85;58.00
69306;BME280;56427;51.580;4.656;2023-08-31T09:33:19;101148.34;;;20.69;57.68
69306;BME280;56427;51.580;4.656;2023-08-31T09:35:53;101150.47;;;20.13;60.00
69306;BME280;56427;51.580;4.656;2023-08-31T09:38:19;101146.38;;;19.56;61.13
69306;BME280;56427;51.580;4.656;2023-08-31T09:40:44;101148.81;;;19.36;61.17
69306;BME280;56427;51.580;4.656;2023-08-31T09:43:24;101148.97;;;19.12;62.27
69306;BME280;56427;51.580;4.656;2023-08-31T09:45:50;101151.34;;;19.81;60.88
69306;BME280;56427;51.580;4.656;2023-08-31T09:48:17;101142.69;;;21.24;56.85
69306;BME280;56427;51.580;4.656;2023-08-31T09:50:46;101137.78;;;21.79;55.33
69306;BME280;56427;51.580;4.656;2023-08-31T09:53:15;101135.84;;;22.20;53.57
69306;BME280;56427;51.580;4.656;2023-08-31T09:55:41;101135.78;;;23.59;51.44
69306;BME280;56427;51.580;4.656;2023-08-31T09:58:08;101136.34;;;22.80;52.01
69306;BME280;56427;51.580;4.656;2023-08-31T10:00:36;101127.22;;;21.89;52.06
69306;BME280;56427;51.580;4.656;2023-08-31T10:03:03;101133.06;;;21.92;52.95
69306;BME280;56427;51.580;4.656;2023-08-31T10:05:29;101130.41;;;22.68;52.87
69306;BME280;56427;51.580;4.656;2023-08-31T10:07:57;101125.56;;;21.78;53.69
69306;BME280;56427;51.580;4.656;2023-08-31T10:10:22;101127.06;;;20.40;56.10
69306;BME280;56427;51.580;4.656;2023-08-31T10:12:49;101127.34;;;19.63;58.10
69306;BME280;56427;51.580;4.656;2023-08-31T10:15:18;101128.63;;;20.01;57.65
69306;BME280;56427;51.580;4.656;2023-08-31T10:17:44;101132.34;;;21.42;52.72
69306;BME280;56427;51.580;4.656;2023-08-31T10:20:11;101113.59;;;22.13;49.63
69306;BME280;56427;51.580;4.656;2023-08-31T10:22:37;101120.56;;;21.94;49.30
69306;BME280;56427;51.580;4.656;2023-08-31T10:25:05;101120.81;;;22.11;49.40
69306;BME280;56427;51.580;4.656;2023-08-31T10:27:43;101114.34;;;22.89;47.63
69306;BME280;56427;51.580;4.656;2023-08-31T10:35:52;101119.44;;;20.98;50.83
69306;BME280;56427;51.580;4.656;2023-08-31T10:38:30;101124.06;;;21.16;51.38
69306;BME280;56427;51.580;4.656;2023-08-31T10:46:34;101111.59;;;20.26;54.27
69306;BME280;56427;51.580;4.656;2023-08-31T10:51:28;101113.50;;;19.61;55.35
69306;BME280;56427;51.580;4.656;2023-08-31T10:54:11;101120.09;;;19.33;56.88
69306;BME280;56427;51.580;4.656;2023-08-31T11:02:07;101136.66;;;19.02;58.30
69306;BME280;56427;51.580;4.656;2023-08-31T11:04:53;101141.63;;;18.60;62.59
69306;BME280;56427;51.580;4.656;2023-08-31T11:07:20;101151.31;;;18.02;70.50
69306;BME280;56427;51.580;4.656;2023-08-31T11:09:48;101150.09;;;17.95;69.56
69306;BME280;56427;51.580;4.656;2023-08-31T11:12:14;101142.91;;;17.86;69.89
69306;BME280;56427;51.580;4.656;2023-08-31T11:14:40;101138.50;;;17.97;68.31
69306;BME280;56427;51.580;4.656;2023-08-31T11:17:06;101149.25;;;18.29;66.22
69306;BME280;56427;51.580;4.656;2023-08-31T11:19:33;101154.19;;;18.10;66.17
69306;BME280;56427;51.580;4.656;2023-08-31T11:22:01;101154.47;;;17.83;69.63
69306;BME280;56427;51.580;4.656;2023-08-31T11:24:33;101141.81;;;17.64;69.64
69306;BME280;56427;51.580;4.656;2023-08-31T11:26:59;101147.81;;;17.66;70.17
69306;BME280;56427;51.580;4.656;2023-08-31T11:29:24;101153.38;;;17.62;69.25
69306;BME280;56427;51.580;4.656;2023-08-31T11:31:50;101154.78;;;17.78;70.97
69306;BME280;56427;51.580;4.656;2023-08-31T11:34:17;101142.09;;;18.31;68.62
69306;BME280;56427;51.580;4.656;2023-08-31T11:36:44;101144.03;;;18.63;66.20
69306;BME280;56427;51.580;4.656;2023-08-31T11:39:11;101137.00;;;18.97;65.63
69306;BME280;56427;51.580;4.656;2023-08-31T11:41:37;101144.53;;;19.13;65.25
69306;BME280;56427;51.580;4.656;2023-08-31T11:44:14;101139.91;;;18.94;64.72
69306;BME280;56427;51.580;4.656;2023-08-31T11:46:45;101153.00;;;18.49;66.33
69306;BME280;56427;51.580;4.656;2023-08-31T11:49:13;101151.38;;;18.24;67.36
69306;BME280;56427;51.580;4.656;2023-08-31T11:51:39;101161.09;;;17.76;68.74
69306;BME280;56427;51.580;4.656;2023-08-31T11:54:06;101159.28;;;17.52;69.41
69306;BME280;56427;51.580;4.656;2023-08-31T11:56:45;101163.97;;;17.36;70.64
69306;BME280;56427;51.580;4.656;2023-08-31T11:59:17;101157.50;;;17.29;71.93
69306;BME280;56427;51.580;4.656;2023-08-31T12:01:45;101156.50;;;17.43;70.47
69306;BME280;56427;51.580;4.656;2023-08-31T12:04:14;101152.97;;;17.31;71.33
69306;BME280;56427;51.580;4.656;2023-08-31T12:06:40;101153.88;;;17.43;70.53
69306;BME280;56427;51.580;4.656;2023-08-31T12:09:09;101156.41;;;17.68;70.05
69306;BME280;56427;51.580;4.656;2023-08-31T12:11:35;101154.91;;;17.77;69.42
69306;BME280;56427;51.580;4.656;2023-08-31T12:14:20;101151.06;;;17.94;68.52
69306;BME280;56427;51.580;4.656;2023-08-31T12:16:47;101158.22;;;18.03;68.12
69306;BME280;56427;51.580;4.656;2023-08-31T12:19:12;101154.72;;;19.06;66.60
69306;BME280;56427;51.580;4.656;2023-08-31T12:21:38;101152.41;;;19.79;64.98
69306;BME280;56427;51.580;4.656;2023-08-31T12:24:04;101145.63;;;19.97;62.54
69306;BME280;56427;51.580;4.656;2023-08-31T12:26:31;101146.00;;;20.45;61.53
69306;BME280;56427;51.580;4.656;2023-08-31T12:28:57;101151.28;;;20.76;60.13
69306;BME280;56427;51.580;4.656;2023-08-31T12:31:23;101139.31;;;21.02;58.82
69306;BME280;56427;51.580;4.656;2023-08-31T12:33:49;101148.28;;;20.90;58.81
69306;BME280;56427;51.580;4.656;2023-08-31T12:36:14;101148.56;;;20.57;58.73
69306;BME280;56427;51.580;4.656;2023-08-31T12:38:40;101139.84;;;20.96;56.38
69306;BME280;56427;51.580;4.656;2023-08-31T12:41:05;101137.75;;;21.40;56.92
69306;BME280;56427;51.580;4.656;2023-08-31T12:43:31;101153.19;;;21.45;56.80
69306;BME280;56427;51.580;4.656;2023-08-31T12:45:57;101141.56;;;21.76;53.54
69306;BME280;56427;51.580;4.656;2023-08-31T12:48:23;101135.50;;;20.55;56.29
69306;BME280;56427;51.580;4.656;2023-08-31T12:50:48;101140.25;;;20.40;57.68
69306;BME280;56427;51.580;4.656;2023-08-31T12:53:14;101133.44;;;20.99;56.04
69306;BME280;56427;51.580;4.656;2023-08-31T12:55:40;101145.84;;;21.77;51.40
69306;BME280;56427;51.580;4.656;2023-08-31T12:58:05;101143.72;;;21.42;50.63
69306;BME280;56427;51.580;4.656;2023-08-31T13:00:31;101135.25;;;20.98;50.75
69306;BME280;56427;51.580;4.656;2023-08-31T13:02:56;101135.38;;;20.57;50.34
69306;BME280;56427;51.580;4.656;2023-08-31T13:05:21;101135.25;;;20.37;51.59
69306;BME280;56427;51.580;4.656;2023-08-31T13:07:47;101134.16;;;20.19;52.89
69306;BME280;56427;51.580;4.656;2023-08-31T13:10:12;101141.97;;;20.09;53.56
69306;BME280;56427;51.580;4.656;2023-08-31T13:12:38;101142.63;;;20.02;54.74
69306;BME280;56427;51.580;4.656;2023-08-31T13:15:04;101136.66;;;20.00;53.65
69306;BME280;56427;51.580;4.656;2023-08-31T13:17:29;101127.97;;;19.88;53.62
69306;BME280;56427;51.580;4.656;2023-08-31T13:19:58;101120.78;;;19.90;53.76
69306;BME280;56427;51.580;4.656;2023-08-31T13:22:24;101124.72;;;19.52;53.92